This is the latest recevied weather packets stored in our database for station/object WP4NYS-13. If no packets are shown the sender has not sent any weather packets the latest 1 day(s).
| Time | Temp. | Humidity | Pressure | Rain* | Wind** | Luminosity | Snow |
|---|---|---|---|---|---|---|---|
| 1778086682 | 31.67° C | 50% | 1017.9 hPa | 0 mm | - | - | - |
| 1778086379 | 32.22° C | 49% | 1017.6 hPa | 0 mm | - | - | - |
| 1778084860 | 30.56° C | 52% | 1017.9 hPa | 0 mm | - | - | - |
| 1778084559 | 30.56° C | 52% | 1017.9 hPa | 0 mm | - | - | - |
| 1778083650 | 30° C | 54% | 1018.1 hPa | 0 mm | - | - | - |
| 1778083346 | 30° C | 55% | 1018.3 hPa | 0 mm | - | - | - |
| 1778083045 | 30° C | 54% | 1018.1 hPa | 0 mm | - | - | - |
| 1778080696 | 28.89° C | 58% | 1018.6 hPa | 0 mm | - | - | - |
| 1778078574 | 27.78° C | 61% | 1018 hPa | 0 mm | - | - | - |
| 1778077365 | 26.67° C | 64% | 1018.1 hPa | 0 mm | - | - | - |
| 1778075548 | 25° C | 70% | 1018.3 hPa | 0 mm | - | - | - |
| 1778075245 | 25° C | 71% | 1018.1 hPa | 0 mm | - | - | - |
| 1778074941 | 24.44° C | 72% | 1018.1 hPa | 0 mm | - | - | - |
| 1778073729 | 23.89° C | 73% | 1018.1 hPa | 0 mm | - | - | - |
| 1778073427 | 23.89° C | 73% | 1017.9 hPa | 0 mm | - | - | - |
| 1778072517 | 23.33° C | 74% | 1017.9 hPa | 0 mm | - | - | - |
| 1778072215 | 22.78° C | 74% | 1018 hPa | 0 mm | - | - | - |
| 1778071005 | 21.67° C | 75% | 1017.7 hPa | 0 mm | - | - | - |
| 1778070704 | 21.67° C | 75% | 1017.6 hPa | 0 mm | - | - | - |
| 1778070098 | 20.56° C | 76% | 1017.6 hPa | 0 mm | - | - | - |
| 1778068283 | 18.33° C | 82% | 1017.3 hPa | 0 mm | - | - | - |
| 1778067980 | 18.33° C | 82% | 1017.5 hPa | 0 mm | - | - | - |
| 1778067678 | 17.78° C | 82% | 1017.2 hPa | 0 mm | - | - | - |
| 1778067376 | 17.78° C | 83% | 1017.2 hPa | 0 mm | - | - | - |
| 1778067073 | 17.78° C | 83% | 1017.3 hPa | 0 mm | - | - | - |
* Rain latest hour (hover to see other rain measurements)
** Current wind speed in m/s (hover to see current wind gust speed)